createdAt,value
2019-02-15T00:02:15.949Z,37.40
2019-02-15T00:04:44.352Z,36.73
2019-02-15T00:07:31.019Z,39.87
2019-02-15T00:09:59.409Z,38.97
2019-02-15T00:12:27.808Z,40.90
2019-02-15T00:14:56.384Z,42.23
2019-02-15T00:17:26.407Z,41.03
2019-02-15T00:26:14.236Z,46.47
2019-02-15T00:28:42.654Z,48.93
2019-02-15T00:31:12.769Z,47.50
2019-02-15T00:33:41.140Z,45.77
2019-02-15T00:36:09.563Z,48.17
2019-02-15T00:38:37.933Z,45.83
2019-02-15T00:41:06.336Z,46.67
2019-02-15T00:43:34.743Z,47.27
2019-02-15T00:46:07.709Z,49.53
2019-02-15T00:48:36.093Z,52.30
2019-02-15T00:51:09.317Z,51.20
2019-02-15T00:53:39.426Z,50.57
2019-02-15T00:56:21.586Z,49.53
2019-02-15T00:58:51.679Z,50.13
2019-02-15T01:01:38.208Z,51.30
2019-02-15T01:04:17.383Z,52.13
2019-02-15T01:07:04.137Z,51.80
2019-02-15T01:09:50.894Z,51.23
2019-02-15T01:12:23.617Z,49.53
2019-02-15T01:14:52.080Z,48.97
2019-02-15T01:17:20.476Z,49.97
2019-02-15T01:19:48.884Z,51.57
2019-02-15T01:22:17.299Z,53.03
2019-02-15T01:24:45.761Z,54.10
2019-02-15T01:27:18.849Z,56.03
2019-02-15T01:29:49.578Z,55.23
2019-02-15T01:32:25.545Z,59.37
2019-02-15T01:35:01.237Z,57.93
2019-02-15T01:37:50.531Z,59.33
2019-02-15T01:40:38.571Z,60.20
2019-02-15T01:43:11.378Z,61.03
2019-02-15T01:45:41.463Z,62.57
2019-02-15T01:48:09.882Z,63.63
2019-02-15T01:50:38.811Z,60.00
2019-02-15T01:53:07.215Z,58.10
2019-02-15T01:55:35.595Z,57.87
2019-02-15T01:58:04.033Z,58.50
2019-02-15T02:00:33.298Z,56.87
2019-02-15T02:03:01.713Z,58.77
2019-02-15T02:05:30.155Z,56.43
2019-02-15T02:07:58.648Z,56.30
2019-02-15T02:10:27.116Z,55.90
2019-02-15T02:12:55.675Z,55.73
2019-02-15T02:15:24.076Z,56.57
2019-02-15T02:17:52.495Z,56.67
2019-02-15T02:20:20.992Z,55.67
2019-02-15T02:22:49.402Z,51.57
2019-02-15T02:25:17.801Z,54.67
2019-02-15T02:27:46.258Z,52.77
2019-02-15T02:30:14.637Z,52.83
2019-02-15T02:32:44.158Z,52.00
2019-02-15T02:35:12.962Z,50.47
2019-02-15T02:37:42.991Z,52.37
2019-02-15T02:40:11.699Z,52.13
2019-02-15T02:42:40.082Z,52.10
2019-02-15T02:45:09.018Z,54.50
2019-02-15T02:47:37.397Z,51.67
2019-02-15T02:50:07.163Z,55.80
2019-02-15T02:52:35.535Z,56.07
2019-02-15T02:55:04.427Z,56.77
2019-02-15T02:57:32.870Z,56.03
2019-02-15T03:00:01.227Z,56.27
2019-02-15T03:02:29.624Z,56.83
2019-02-15T03:04:58.067Z,55.57
2019-02-15T03:07:26.487Z,56.20
2019-02-15T03:09:55.984Z,55.37
2019-02-15T03:12:26.016Z,57.20
2019-02-15T03:14:56.672Z,58.17
2019-02-15T03:17:25.559Z,55.40
2019-02-15T03:19:54.521Z,59.20
2019-02-15T03:22:22.966Z,58.03
2019-02-15T03:24:51.387Z,59.17
2019-02-15T03:27:19.879Z,59.33
2019-02-15T03:29:48.335Z,60.93
2019-02-15T03:32:17.632Z,59.00
2019-02-15T03:34:46.025Z,59.77
2019-02-15T03:37:34.201Z,59.80
2019-02-15T03:40:05.969Z,58.53
2019-02-15T03:42:36.232Z,59.17
2019-02-15T03:45:06.807Z,60.73
2019-02-15T03:47:36.397Z,58.50
2019-02-15T03:50:07.505Z,59.17
2019-02-15T03:52:36.002Z,56.57
2019-02-15T03:55:05.896Z,59.10
2019-02-15T03:57:34.331Z,58.03
2019-02-15T04:00:02.756Z,58.37
2019-02-15T04:02:33.487Z,58.10
2019-02-15T04:05:01.876Z,56.30
2019-02-15T04:07:30.282Z,61.57
2019-02-15T04:09:58.679Z,58.87
2019-02-15T04:12:27.110Z,58.27
2019-02-15T04:14:55.486Z,57.77
2019-02-15T04:17:23.920Z,60.13
2019-02-15T04:19:53.159Z,57.13
2019-02-15T04:22:21.556Z,59.50
2019-02-15T04:24:49.992Z,59.53
2019-02-15T04:27:18.388Z,58.40
2019-02-15T04:29:46.801Z,61.13
2019-02-15T04:32:15.329Z,56.83
2019-02-15T04:34:43.728Z,58.67
2019-02-15T04:37:12.187Z,57.43
2019-02-15T04:39:40.600Z,61.20
2019-02-15T04:42:08.998Z,57.57
2019-02-15T04:44:42.765Z,54.70
2019-02-15T04:47:08.908Z,57.20
2019-02-15T04:49:37.343Z,60.40
2019-02-15T04:52:05.771Z,59.20
2019-02-15T04:54:34.140Z,58.77
2019-02-15T04:57:04.112Z,58.17
2019-02-15T04:59:32.977Z,58.50
2019-02-15T05:02:01.352Z,56.97
2019-02-15T05:04:31.670Z,54.63
2019-02-15T05:07:00.103Z,56.40
2019-02-15T05:09:28.493Z,56.13
2019-02-15T05:11:56.872Z,54.03
2019-02-15T05:14:26.180Z,53.40
2019-02-15T05:16:54.566Z,52.33
2019-02-15T05:19:23.052Z,52.87
2019-02-15T05:21:51.461Z,55.03
2019-02-15T05:24:19.836Z,55.07
2019-02-15T05:26:48.283Z,53.30
2019-02-15T05:29:16.721Z,55.73
2019-02-15T05:31:45.568Z,54.57
2019-02-15T05:34:14.000Z,53.90
2019-02-15T05:36:42.415Z,55.03
2019-02-15T05:39:10.789Z,53.23
2019-02-15T05:41:40.272Z,63.15
2019-02-15T05:44:08.705Z,55.83
2019-02-15T05:46:37.117Z,53.53
2019-02-15T05:49:05.494Z,54.97
2019-02-15T05:51:34.342Z,55.83
2019-02-15T05:54:07.727Z,53.10
2019-02-15T05:56:37.813Z,54.03
2019-02-15T05:59:08.937Z,54.80
2019-02-15T06:01:37.678Z,54.90
2019-02-15T06:04:06.046Z,54.60
2019-02-15T06:06:34.517Z,53.57
2019-02-15T06:09:04.760Z,52.93
2019-02-15T06:11:33.130Z,55.10
2019-02-15T06:14:01.549Z,54.80
2019-02-15T06:16:29.932Z,54.20
2019-02-15T06:18:58.302Z,56.37
2019-02-15T06:21:26.968Z,55.17
2019-02-15T06:23:55.341Z,57.50
2019-02-15T06:26:23.717Z,56.43
2019-02-15T06:28:52.112Z,55.97
2019-02-15T06:31:20.506Z,55.30
2019-02-15T06:33:48.881Z,55.80
2019-02-15T06:36:17.258Z,53.93
2019-02-15T06:38:45.763Z,55.07
2019-02-15T06:41:14.774Z,55.70
2019-02-15T06:43:43.128Z,53.07
2019-02-15T06:46:11.534Z,51.50
2019-02-15T06:48:39.921Z,54.47
2019-02-15T06:51:08.326Z,53.60
2019-02-15T06:53:36.816Z,53.43
2019-02-15T06:56:05.207Z,53.60
2019-02-15T06:58:33.573Z,55.57
2019-02-15T07:01:06.026Z,53.87
2019-02-15T07:03:36.088Z,53.17
2019-02-15T07:06:04.457Z,51.60
2019-02-15T07:08:33.996Z,52.70
2019-02-15T07:11:02.383Z,52.03
2019-02-15T07:13:32.402Z,51.57
2019-02-15T07:16:00.840Z,52.53
2019-02-15T07:18:29.221Z,49.30
2019-02-15T07:20:57.615Z,51.53
2019-02-15T07:23:26.040Z,49.13
2019-02-15T07:25:54.418Z,50.43
2019-02-15T07:28:22.825Z,53.67
2019-02-15T07:30:51.490Z,54.77
2019-02-15T07:33:19.826Z,53.37
2019-02-15T07:35:48.221Z,55.63
2019-02-15T07:38:16.645Z,54.23
2019-02-15T07:40:46.647Z,51.70
2019-02-15T07:43:15.040Z,50.40
2019-02-15T07:45:43.469Z,53.57
2019-02-15T07:48:13.562Z,53.00
2019-02-15T07:51:09.089Z,50.07
2019-02-15T07:53:30.522Z,49.17
2019-02-15T07:55:58.914Z,48.50
2019-02-15T07:58:28.930Z,48.50
2019-02-15T08:00:58.486Z,47.47
2019-02-15T08:03:26.972Z,47.93
2019-02-15T08:05:55.427Z,44.70
2019-02-15T08:08:23.837Z,42.73
2019-02-15T08:10:54.628Z,43.80
2019-02-15T08:13:23.013Z,42.53
2019-02-15T08:15:52.226Z,43.17
2019-02-15T08:18:20.763Z,44.93
2019-02-15T08:20:49.179Z,44.60
2019-02-15T08:23:17.575Z,44.67
2019-02-15T08:25:45.940Z,42.40
2019-02-15T08:28:14.759Z,44.10
2019-02-15T08:30:43.130Z,45.00
2019-02-15T08:33:11.591Z,42.10
2019-02-15T08:35:40.016Z,41.60
2019-02-15T08:38:09.066Z,41.23
2019-02-15T08:40:37.663Z,41.60
2019-02-15T08:43:06.116Z,40.67
2019-02-15T08:45:34.485Z,41.07
2019-02-15T08:48:02.867Z,41.17
2019-02-15T08:50:32.416Z,41.60
2019-02-15T08:53:00.825Z,38.20
2019-02-15T08:55:29.217Z,38.60
2019-02-15T08:57:57.673Z,37.80
2019-02-15T09:00:26.212Z,37.50
2019-02-15T09:02:55.967Z,35.30
2019-02-15T09:05:24.331Z,40.83
2019-02-15T09:07:52.783Z,37.83
2019-02-15T09:10:21.159Z,36.37
2019-02-15T09:12:49.589Z,35.20
2019-02-15T09:15:20.606Z,34.23
2019-02-15T09:17:48.986Z,33.97
2019-02-15T09:20:17.477Z,35.60
2019-02-15T09:22:45.838Z,35.90
2019-02-15T09:25:14.236Z,36.13
2019-02-15T09:27:47.362Z,34.23
2019-02-15T09:30:15.832Z,35.97
2019-02-15T09:32:44.208Z,35.40
2019-02-15T09:35:12.734Z,33.97
2019-02-15T09:37:41.099Z,34.83
2019-02-15T09:40:10.257Z,34.10
2019-02-15T09:42:38.641Z,34.27
2019-02-15T09:45:10.392Z,35.67
2019-02-15T09:47:38.848Z,33.67
2019-02-15T09:50:10.227Z,33.53
2019-02-15T09:52:39.452Z,35.63
2019-02-15T09:55:07.831Z,34.33
2019-02-15T09:57:36.238Z,32.60
2019-02-15T10:00:10.158Z,34.50
2019-02-15T10:02:38.666Z,33.23
2019-02-15T10:05:08.902Z,32.80
2019-02-15T10:07:55.367Z,33.03
2019-02-15T10:10:24.159Z,34.00
2019-02-15T10:12:52.531Z,29.57
2019-02-15T10:15:20.908Z,31.87
2019-02-15T10:17:49.292Z,33.80
2019-02-15T10:20:17.669Z,33.30
2019-02-15T10:22:46.055Z,32.77
2019-02-15T10:25:14.455Z,34.00
2019-02-15T10:27:42.857Z,34.40
2019-02-15T10:30:12.611Z,32.73
2019-02-15T10:32:41.012Z,35.07
2019-02-15T10:35:12.571Z,35.60
2019-02-15T10:37:40.983Z,34.73
2019-02-15T10:40:12.280Z,34.53
2019-02-15T10:42:40.667Z,37.27
2019-02-15T10:45:15.931Z,36.33
2019-02-15T10:47:44.320Z,39.50
2019-02-15T10:50:12.737Z,39.53
2019-02-15T10:52:41.236Z,37.00
2019-02-15T10:55:09.671Z,39.93
2019-02-15T10:57:38.178Z,41.40
2019-02-15T11:00:21.953Z,42.23
2019-02-15T11:02:50.396Z,41.20
2019-02-15T11:05:19.054Z,43.83
2019-02-15T11:07:47.472Z,43.10
2019-02-15T11:10:15.882Z,43.70
2019-02-15T11:12:44.243Z,43.87
2019-02-15T11:15:15.124Z,45.33
2019-02-15T11:17:43.530Z,42.03
2019-02-15T11:20:16.543Z,42.83
2019-02-15T11:22:44.940Z,43.23
2019-02-15T11:25:13.301Z,43.03
2019-02-15T11:27:41.723Z,46.30
2019-02-15T11:30:14.840Z,46.80
2019-02-15T11:32:43.219Z,46.00
2019-02-15T11:35:12.792Z,48.07
2019-02-15T11:37:41.181Z,46.27
2019-02-15T11:40:12.171Z,43.87
2019-02-15T11:42:42.557Z,44.40
2019-02-15T11:45:12.498Z,47.67
2019-02-15T11:47:40.897Z,46.03
2019-02-15T11:50:12.178Z,46.37
2019-02-15T11:52:40.563Z,46.13
2019-02-15T11:55:10.720Z,46.67
2019-02-15T11:57:39.166Z,47.37
2019-02-15T12:00:14.778Z,46.37
2019-02-15T12:02:43.301Z,48.77
2019-02-15T12:05:11.815Z,48.23
2019-02-15T12:07:40.194Z,50.90
2019-02-15T12:10:10.332Z,51.57
2019-02-15T12:12:38.746Z,49.80
2019-02-15T12:15:08.779Z,52.47
2019-02-15T12:17:37.186Z,50.77
2019-02-15T12:20:11.940Z,51.93
2019-02-15T12:22:40.344Z,51.83
2019-02-15T12:25:09.935Z,53.30
2019-02-15T12:27:38.444Z,52.53
2019-02-15T12:30:13.287Z,53.37
2019-02-15T12:32:41.685Z,50.23
2019-02-15T12:35:10.932Z,52.30
2019-02-15T12:37:39.365Z,54.37
2019-02-15T12:40:09.945Z,52.97
2019-02-15T12:42:38.336Z,53.40
2019-02-15T12:45:09.653Z,53.37
2019-02-15T12:47:38.041Z,54.77
2019-02-15T12:50:17.628Z,53.73
2019-02-15T12:52:46.019Z,52.57
2019-02-15T12:55:14.403Z,55.23
2019-02-15T12:57:42.814Z,56.40
2019-02-15T13:00:16.552Z,57.83
2019-02-15T13:02:44.920Z,57.50
2019-02-15T13:05:13.907Z,58.17
2019-02-15T13:07:42.279Z,58.47
2019-02-15T13:10:13.536Z,57.30
2019-02-15T13:12:41.884Z,56.47
2019-02-15T13:15:11.670Z,56.20
2019-02-15T13:17:40.214Z,57.20
2019-02-15T13:20:09.658Z,53.93
2019-02-15T13:22:38.059Z,51.20
2019-02-15T13:25:07.534Z,51.10
2019-02-15T13:27:35.931Z,53.53
2019-02-15T13:30:12.314Z,55.40
2019-02-15T13:32:45.658Z,58.80
2019-02-15T13:35:20.054Z,54.87
2019-02-15T13:37:48.639Z,50.73
2019-02-15T13:40:17.022Z,52.03
2019-02-15T13:42:45.399Z,53.03
2019-02-15T13:45:13.883Z,55.60
2019-02-15T13:47:42.318Z,53.53
2019-02-15T13:50:12.913Z,54.33
2019-02-15T13:52:41.319Z,54.00
2019-02-15T13:55:10.871Z,54.30
2019-02-15T13:57:39.737Z,53.53
2019-02-15T14:00:11.245Z,55.00
2019-02-15T14:02:39.647Z,54.37
2019-02-15T14:05:10.515Z,54.47
2019-02-15T14:07:38.917Z,52.13
2019-02-15T14:10:10.116Z,53.23
2019-02-15T14:12:38.561Z,56.30
2019-02-15T14:15:08.290Z,53.67
2019-02-15T14:17:44.370Z,54.17
2019-02-15T14:20:13.650Z,54.40
2019-02-15T14:22:43.452Z,54.37
2019-02-15T14:25:12.313Z,62.93
2019-02-15T14:27:40.700Z,61.97
2019-02-15T14:30:11.183Z,62.50
2019-02-15T14:32:39.639Z,64.77
2019-02-15T14:35:09.852Z,64.10
2019-02-15T14:37:38.932Z,64.83
2019-02-15T14:40:12.075Z,65.23
2019-02-15T14:42:40.478Z,65.57
2019-02-15T14:45:13.544Z,63.27
2019-02-15T14:47:42.000Z,64.70
2019-02-15T14:50:11.146Z,63.83
2019-02-15T14:52:41.591Z,64.87
2019-02-15T14:55:11.804Z,60.40
2019-02-15T14:57:42.135Z,64.23
2019-02-15T15:00:12.642Z,61.63
2019-02-15T15:02:41.034Z,61.27
2019-02-15T15:05:11.415Z,61.40
2019-02-15T15:07:39.797Z,61.93
2019-02-15T15:10:09.941Z,64.13
2019-02-15T15:12:38.434Z,60.70
2019-02-15T15:15:11.684Z,61.90
2019-02-15T15:17:40.169Z,59.63
2019-02-15T15:20:10.474Z,61.63
2019-02-15T15:22:38.895Z,65.60
2019-02-15T15:25:15.635Z,64.93
2019-02-15T15:27:44.039Z,63.10
2019-02-15T15:30:13.867Z,66.80
2019-02-15T15:32:42.248Z,68.10
2019-02-15T15:35:11.581Z,64.70
2019-02-15T15:37:39.995Z,64.37
2019-02-15T15:40:13.390Z,67.47
2019-02-15T15:42:42.091Z,63.70
2019-02-15T15:45:11.872Z,64.37
2019-02-15T15:47:40.247Z,64.57
2019-02-15T15:50:12.607Z,65.83
2019-02-15T15:52:41.012Z,61.73
2019-02-15T15:55:13.543Z,65.20
2019-02-15T15:57:41.927Z,65.37
2019-02-15T16:00:15.346Z,63.87
2019-02-15T16:02:43.731Z,64.47
2019-02-15T16:05:12.192Z,66.47
2019-02-15T16:07:40.627Z,64.70
2019-02-15T16:10:13.815Z,65.57
2019-02-15T16:12:43.904Z,65.23
2019-02-15T16:15:13.256Z,64.67
2019-02-15T16:17:45.617Z,65.97
2019-02-15T16:20:20.732Z,65.90
2019-02-15T16:22:51.913Z,68.10
2019-02-15T16:25:21.648Z,63.70
2019-02-15T16:27:51.265Z,67.23
2019-02-15T16:30:21.358Z,67.40
2019-02-15T16:32:49.695Z,72.50
2019-02-15T16:35:18.196Z,72.67
2019-02-15T16:37:46.599Z,71.70
2019-02-15T16:40:16.600Z,68.07
2019-02-15T16:42:45.194Z,72.57
2019-02-15T16:45:16.959Z,72.70
2019-02-15T16:47:48.629Z,70.57
2019-02-15T16:50:20.152Z,65.23
2019-02-15T16:52:48.630Z,74.07
2019-02-15T16:55:18.141Z,71.53
2019-02-15T16:57:49.047Z,67.03
2019-02-15T17:00:17.528Z,68.70
2019-02-15T17:02:46.425Z,66.37
2019-02-15T17:05:17.370Z,67.67
2019-02-15T17:07:46.691Z,63.23
2019-02-15T17:10:15.019Z,61.83
2019-02-15T17:12:45.503Z,63.13
2019-02-15T17:15:16.131Z,60.00
2019-02-15T17:17:47.308Z,55.83
2019-02-15T17:20:15.704Z,52.80
2019-02-15T17:22:47.977Z,53.90
2019-02-15T17:25:20.585Z,49.70
2019-02-15T17:27:48.970Z,51.77
2019-02-15T17:30:19.040Z,52.13
2019-02-15T17:32:47.476Z,51.27
2019-02-15T17:35:15.894Z,51.33
2019-02-15T17:37:44.286Z,52.43
2019-02-15T17:40:16.489Z,48.00
2019-02-15T17:42:46.309Z,50.53
2019-02-15T17:45:16.314Z,50.23
2019-02-15T17:47:46.333Z,50.80
2019-02-15T17:50:14.776Z,49.13
2019-02-15T17:52:44.889Z,50.30
2019-02-15T17:55:13.286Z,49.97
2019-02-15T17:57:42.399Z,48.70
2019-02-15T18:00:14.988Z,48.70
2019-02-15T18:02:43.893Z,61.73
2019-02-15T18:05:18.833Z,53.13
2019-02-15T18:07:49.169Z,48.27
2019-02-15T18:10:17.581Z,47.63
2019-02-15T18:12:47.038Z,49.37
2019-02-15T18:15:15.873Z,48.07
2019-02-15T18:17:44.807Z,49.03
2019-02-15T18:20:13.287Z,51.40
2019-02-15T18:22:41.662Z,49.80
2019-02-15T18:25:10.035Z,49.30
2019-02-15T18:27:38.468Z,50.40
2019-02-15T18:30:10.142Z,48.97
2019-02-15T18:32:38.515Z,51.00
2019-02-15T18:35:13.259Z,49.80
2019-02-15T18:37:37.368Z,52.27
2019-02-15T18:40:08.703Z,51.43
2019-02-15T18:42:37.125Z,51.60
2019-02-15T18:45:08.750Z,50.50
2019-02-15T18:47:37.127Z,50.43
2019-02-15T18:50:07.788Z,49.80
2019-02-15T18:52:36.173Z,52.07
2019-02-15T18:55:06.175Z,48.73
2019-02-15T18:57:34.607Z,46.97
2019-02-15T19:00:06.586Z,47.70
2019-02-15T19:02:34.995Z,51.80
2019-02-15T19:05:03.918Z,44.97
2019-02-15T19:07:32.316Z,45.73
2019-02-15T19:10:00.745Z,47.00
2019-02-15T19:12:29.122Z,46.83
2019-02-15T19:14:57.554Z,48.17
2019-02-15T19:17:25.933Z,46.83
2019-02-15T19:19:54.319Z,49.27
2019-02-15T19:22:22.727Z,49.20
2019-02-15T19:24:51.102Z,47.93
2019-02-15T19:27:19.496Z,49.53
2019-02-15T19:29:49.042Z,49.50
2019-02-15T19:32:17.388Z,48.70
2019-02-15T19:34:45.774Z,47.80
2019-02-15T19:37:14.189Z,48.77
2019-02-15T19:39:45.428Z,45.57
2019-02-15T19:42:14.596Z,46.00
2019-02-15T19:44:42.984Z,45.87
2019-02-15T19:47:11.667Z,48.47
2019-02-15T19:49:40.089Z,48.97
2019-02-15T19:52:10.117Z,46.40
2019-02-15T19:54:38.501Z,45.83
2019-02-15T19:57:12.628Z,47.97
2019-02-15T19:59:41.049Z,48.60
2019-02-15T20:05:02.225Z,49.73
2019-02-15T20:07:31.074Z,46.97
2019-02-15T20:10:02.779Z,47.27
2019-02-15T20:12:31.802Z,45.60
2019-02-15T20:15:01.165Z,50.63
2019-02-15T20:17:31.341Z,47.47
2019-02-15T20:20:00.300Z,48.63
2019-02-15T20:22:30.611Z,46.83
2019-02-15T20:25:01.776Z,48.43
2019-02-15T20:27:33.994Z,47.87
2019-02-15T20:30:03.543Z,47.40
2019-02-15T20:32:32.692Z,45.43
2019-02-15T20:35:01.568Z,47.70
2019-02-15T20:37:30.122Z,48.27
2019-02-15T20:40:00.467Z,50.00
2019-02-15T20:42:29.562Z,49.20
2019-02-15T20:44:58.426Z,50.00
2019-02-15T20:47:28.579Z,49.23
2019-02-15T20:50:02.994Z,50.33
2019-02-15T20:52:31.581Z,47.13
2019-02-15T20:55:00.054Z,49.73
2019-02-15T20:57:28.494Z,48.70
2019-02-15T20:59:58.284Z,49.47
2019-02-15T21:02:26.693Z,47.27
2019-02-15T21:04:57.048Z,50.67
2019-02-15T21:07:27.460Z,49.33
2019-02-15T21:09:56.583Z,50.20
2019-02-15T21:12:26.881Z,48.43
2019-02-15T21:14:59.604Z,51.60
2019-02-15T21:17:30.347Z,50.23
2019-02-15T21:20:07.242Z,47.77
2019-02-15T21:22:31.228Z,52.17
2019-02-15T21:25:02.094Z,47.37
2019-02-15T21:27:30.537Z,48.37
2019-02-15T21:29:59.910Z,50.30
2019-02-15T21:32:28.835Z,47.87
2019-02-15T21:34:57.262Z,48.00
2019-02-15T21:37:29.105Z,48.67
2019-02-15T21:39:58.345Z,48.03
2019-02-15T21:42:28.490Z,47.17
2019-02-15T21:44:57.766Z,47.60
2019-02-15T21:47:26.567Z,50.00
2019-02-15T21:49:55.567Z,49.37
2019-02-15T21:52:24.574Z,50.40
2019-02-15T21:54:56.446Z,47.17
2019-02-15T21:57:30.975Z,50.77
2019-02-15T21:59:59.773Z,50.57
2019-02-15T22:02:28.434Z,48.23
2019-02-15T22:04:58.553Z,46.00
2019-02-15T22:08:28.750Z,44.57
2019-02-15T22:11:00.265Z,43.60
2019-02-15T22:13:29.078Z,42.97
2019-02-15T22:16:01.570Z,42.90
2019-02-15T22:18:30.389Z,41.70
2019-02-15T22:21:00.023Z,40.33
2019-02-15T22:23:30.925Z,42.33
2019-02-15T22:26:03.233Z,41.10
2019-02-15T22:28:33.293Z,42.53
2019-02-15T22:31:04.191Z,42.23
2019-02-15T22:33:33.585Z,43.27
2019-02-15T22:36:03.045Z,43.10
2019-02-15T22:38:32.470Z,42.93
2019-02-15T22:41:14.560Z,42.83
2019-02-15T22:43:45.336Z,42.23
2019-02-15T22:46:15.536Z,42.57
2019-02-15T22:48:45.150Z,42.20
2019-02-15T22:51:14.218Z,43.47
2019-02-15T22:53:46.293Z,43.30
2019-02-15T22:56:16.781Z,42.83
2019-02-15T22:58:46.558Z,39.60
2019-02-15T23:01:15.648Z,40.23
2019-02-15T23:03:44.149Z,39.57
2019-02-15T23:06:12.683Z,37.47
2019-02-15T23:08:41.193Z,41.00
2019-02-15T23:11:11.469Z,40.90
2019-02-15T23:13:43.386Z,45.40
2019-02-15T23:16:22.413Z,46.07
2019-02-15T23:18:52.971Z,45.20
2019-02-15T23:21:21.355Z,47.37
2019-02-15T23:23:51.427Z,48.53
2019-02-15T23:26:20.241Z,49.47
2019-02-15T23:28:50.616Z,48.80
2019-02-15T23:31:19.053Z,51.30
2019-02-15T23:33:47.941Z,52.90
2019-02-15T23:36:16.372Z,53.60
2019-02-15T23:38:45.149Z,55.57
2019-02-15T23:41:16.941Z,52.73
2019-02-15T23:43:46.823Z,52.37
2019-02-15T23:46:17.654Z,50.80
2019-02-15T23:48:47.049Z,51.13
2019-02-15T23:51:20.439Z,49.30
2019-02-15T23:53:49.023Z,50.73
2019-02-15T23:56:18.398Z,57.93
2019-02-15T23:58:46.935Z,57.13
